Michael AAF, Utah

8:49 PM MDT on August 24, 2016 (GMT -0600)
MesoWest | | Change Station

Elev 4362 ft 40.16 °N, 112.89 °W | Updated 29 minutes ago

Clear
Clear
75 °F
Feels Like 75 °F
N
6
Wind Variable Wind from NE
Gusts 7.0 mph

Today
High -- | Low -- °F
--% Chance of Precip.
Yesterday
High -- | Low -- °F
Precip. -- in
Pressure 30.12 in
Visibility 10.0 miles
Clouds Clear
Heat Index 75 °F
Dew Point 16 °F
Humidity 11%
Rainfall in
Snow Depth Not available.
6:52 AM 8:14 PM
Waning Gibbous, 50% visible
METAR KU42 250235Z AUTO 34004KT 10SM CLR 21/M04 A3012 RMK AO1 T02071036
Pressure 30.12 in
Visibility 10.0 miles
Clouds Clear
Heat Index 75 °F
Dew Point 16 °F
Humidity 11%
Rainfall in
Snow Depth Not available.
6:52 AM 8:14 PM
Waning Gibbous, 50% visible
METAR KU42 250235Z AUTO 34004KT 10SM CLR 21/M04 A3012 RMK AO1 T02071036

10-Day Weather Forecast

Almanac

Astronomy

Aug. 24, 2016 Rise Set
Actual Time
Civil Twilight
Nautical Twilight
Astronomical Twilight
Moon
Length of Visible Light
Length of Day
Tomorrow will be .
, % of the Moon is Illuminated

Today's Extremes

State Highs State Lows

Community

WunderPhotos

Upload Photos

1,934,779 photos uploaded!

WunderBlog® & News

Nearby

Air Quality

  Air Quality AQ Index Pollutant
Not available.

Snow Depth

Station Depth Elevation

Earthquake Activity

City Distance Mag. Time & Date
Minimum magnitude displayed is 2.5.

Coastal Water Temperatures

Place Temperature

Stations

Nearby Weather Stations

Station Location Temp. Windchill Dew Point Humidity Wind Precip. Elev Updated Type
                   

Watches & Warnings

There are currently no watches in effect.